Federal Kumano — VRYL4 — position and weather

sailwx.info

Track history (hours):
 
Tides and Currents Weather Stations Pressure Air Temp Water Temp Dewpoint Dewpoint Depression Visibility Wind Speed Wind Dir Waves Ship Positions

Federal Kumano

Last reported at 2014-Oct-24 07:32 UTC. Time now 2014-Oct-24 07:52 UTC.
Position N 53°38' W 000°11'.

Length 200 m; draft 5.9 m.

Type: Cargo ship. MMSI: 477284000.

Date/timePositionNaut miles runAvg speedWind from/ knotsBaromVisibWave heightAir tempDewpointWater temp
2014-Oct-24 07:32N 53°38' W 000°11'0 0.0
2014-Oct-24 06:32N 53°38' W 000°11'0 0.0
2014-Oct-24 05:32N 53°38' W 000°11'0 0.0
2014-Oct-24 04:32N 53°38' W 000°11'0 0.0
2014-Oct-24 03:32N 53°38' W 000°11'0 0.0
2014-Oct-24 02:32N 53°38' W 000°11'0 0.0
2014-Oct-24 01:32N 53°38' W 000°11'0 0.0
2014-Oct-24 00:32N 53°38' W 000°11'0 0.0
2014-Oct-23 23:32N 53°38' W 000°11'0 0.0
2014-Oct-23 22:29N 53°38' W 000°11'0 0.0
2014-Oct-23 21:32N 53°38' W 000°11'0 0.0
2014-Oct-23 20:32N 53°38' W 000°11'0 0.0
2014-Oct-23 19:32N 53°38' W 000°11'0 0.0
2014-Oct-23 18:32N 53°38' W 000°11'0 0.0
2014-Oct-23 17:32N 53°38' W 000°11'0 0.0
2014-Oct-23 16:32N 53°38' W 000°11'0 0.0
2014-Oct-23 15:32N 53°38' W 000°11'0 0.0
2014-Oct-23 14:32N 53°38' W 000°11'0 0.0
2014-Oct-23 13:32N 53°38' W 000°11'0 0.0
2014-Oct-23 12:32N 53°38' W 000°11'0 0.0
2014-Oct-23 11:32N 53°38' W 000°11'0 0.0
2014-Oct-23 10:32N 53°38' W 000°11'0 0.0
2014-Oct-23 09:32N 53°38' W 000°11'0 0.0
2014-Oct-23 08:32N 53°38' W 000°11'0 0.0
2014-Oct-23 07:32N 53°38' W 000°11'0 0.0
2014-Oct-23 06:26N 53°38' W 000°11'0 0.0
2014-Oct-23 05:32N 53°38' W 000°11'0 0.0
2014-Oct-23 04:32N 53°38' W 000°11'0 0.0
2014-Oct-23 03:32N 53°38' W 000°11'0 0.0
2014-Oct-23 02:32N 53°38' W 000°11'0 0.0
2014-Oct-23 01:32N 53°38' W 000°11'0 0.0
2014-Oct-23 00:32N 53°38' W 000°11'0 0.0
2014-Oct-22 23:32N 53°38' W 000°11'0 0.0
2014-Oct-22 22:32N 53°38' W 000°11'0 0.0
2014-Oct-22 21:32N 53°38' W 000°11'0 0.0
2014-Oct-22 20:32N 53°38' W 000°11'0 0.0
2014-Oct-22 19:32N 53°38' W 000°11'0 0.0
2014-Oct-22 18:32N 53°38' W 000°11'0 0.0
2014-Oct-22 17:32N 53°38' W 000°11'0 0.0
2014-Oct-22 16:32N 53°38' W 000°11'0 0.0
2014-Oct-22 15:32N 53°38' W 000°11'0 0.0
2014-Oct-22 14:32N 53°38' W 000°11'0 0.0
2014-Oct-22 13:32N 53°38' W 000°11'0 0.0
2014-Oct-22 12:32N 53°38' W 000°11'0 0.0
2014-Oct-22 11:32N 53°38' W 000°11'0 0.0
2014-Oct-22 10:32N 53°38' W 000°11'0 0.0
2014-Oct-22 09:32N 53°38' W 000°11'0 0.0
2014-Oct-22 08:32N 53°38' W 000°11'0 0.0
2014-Oct-22 07:32N 53°38' W 000°11'0 0.0
2014-Oct-22 06:26N 53°38' W 000°11'0 0.0
2014-Oct-22 05:32N 53°38' W 000°11'0 0.0
2014-Oct-22 04:32N 53°38' W 000°11'0 0.0
2014-Oct-22 03:26N 53°38' W 000°11'0 0.0
2014-Oct-22 02:32N 53°38' W 000°11'0 0.0
2014-Oct-22 01:32N 53°38' W 000°11'0 0.0
2014-Oct-22 00:32N 53°38' W 000°11'0 0.0
2014-Oct-21 23:32N 53°38' W 000°11'0 0.0
2014-Oct-21 22:32N 53°38' W 000°11'0 0.0
2014-Oct-21 21:32N 53°38' W 000°11'0 0.0
2014-Oct-21 20:32N 53°38' W 000°11'0 0.0
2014-Oct-21 19:32N 53°38' W 000°11'0 0.0
2014-Oct-21 18:32N 53°38' W 000°11'0 0.0
2014-Oct-21 17:32N 53°38' W 000°11'0 0.0
2014-Oct-21 16:33N 53°38' W 000°11'1 1.3
2014-Oct-21 15:33N 53°38' W 000°09'9 9.1
2014-Oct-21 14:33N 53°34' E 000°05'8 8.0
2014-Oct-21 13:33N 53°33' E 000°18'4 4.0
2014-Oct-21 12:33N 53°35' E 000°24'2 1.9
2014-Oct-21 11:32N 53°37' E 000°24'0 0.1
2014-Oct-21 10:32N 53°37' E 000°25'0 0.0
2014-Oct-21 09:32N 53°37' E 000°24'2 2.6
2014-Oct-21 08:33N 53°38' E 000°28'7 6.6
2014-Oct-21 07:33N 53°41' E 000°38'9 9.2
2014-Oct-21 06:33N 53°47' E 000°50'9 8.5
2014-Oct-21 05:27N 53°51' E 001°05'10111.0
2014-Oct-20 20:13N 54°00' E 003°56'3011.2
2014-Oct-20 17:33N 54°03' E 004°47'1110.7
2014-Oct-20 16:33N 54°05' E 005°05'1110.7
2014-Oct-20 15:32N 54°06' E 005°23'1111.0
2014-Oct-20 14:33N 54°08' E 005°41'1111.3
2014-Oct-20 13:33N 54°10' E 006°00'3511.7
2014-Oct-20 10:32N 54°12' E 007°00'1111.2
2014-Oct-20 09:33N 54°12' E 007°19'1010.2
2014-Oct-20 08:33N 54°12' E 007°37'10 9.6
2014-Oct-20 07:33N 54°07' E 007°50'9 9.5
2014-Oct-20 06:33N 54°01' E 008°04'8 7.9
2014-Oct-20 05:33N 53°60' E 008°17'5 4.8
2014-Oct-20 04:33N 53°59' E 008°25'8 8.3
2014-Oct-20 03:33N 53°57' E 008°38'1211.9
2014-Oct-20 02:34N 53°51' E 008°56'9 9.2
2014-Oct-20 01:33N 53°53' E 009°11'0 0.0
2014-Oct-20 00:28N 53°53' E 009°11'0 0.0
2014-Oct-19 23:25N 53°53' E 009°11'0 0.0
2014-Oct-19 22:28N 53°53' E 009°11'0 0.0
2014-Oct-19 21:31N 53°53' E 009°11'0 0.0
2014-Oct-19 20:31N 53°53' E 009°11'0 0.0
2014-Oct-19 19:28N 53°53' E 009°11'0 0.0
2014-Oct-19 18:31N 53°53' E 009°11'0 0.0
2014-Oct-19 17:31N 53°53' E 009°11'0 0.0
2014-Oct-19 16:31N 53°53' E 009°11'0 0.0
2014-Oct-19 15:31N 53°53' E 009°11'0 0.0
2014-Oct-19 14:31N 53°53' E 009°11'0 0.0
2014-Oct-19 13:31N 53°53' E 009°11'0 0.0
2014-Oct-19 12:31N 53°53' E 009°11'0 0.0
2014-Oct-19 11:28N 53°53' E 009°11'0 0.0
2014-Oct-19 10:25N 53°53' E 009°11'0 0.0
2014-Oct-19 09:31N 53°53' E 009°11'0 0.0
2014-Oct-19 08:28N 53°53' E 009°11'0 0.0
2014-Oct-19 07:31N 53°53' E 009°11'0 0.0
2014-Oct-19 06:31N 53°53' E 009°11'0 0.0
2014-Oct-19 05:28N 53°53' E 009°11'0 0.0
2014-Oct-19 04:19N 53°53' E 009°11'0 0.0
2014-Oct-19 03:28N 53°53' E 009°11'0 0.0
2014-Oct-19 02:28N 53°53' E 009°11'0 0.0
2014-Oct-19 01:31N 53°53' E 009°11'0 0.0
2014-Oct-19 00:31N 53°53' E 009°11'0 0.0
2014-Oct-18 23:28N 53°53' E 009°11'0 0.0
2014-Oct-18 22:31N 53°53' E 009°11'0 0.0
2014-Oct-18 21:31N 53°53' E 009°11'0 0.0
2014-Oct-18 20:31N 53°53' E 009°11'0 0.0
2014-Oct-18 19:31N 53°53' E 009°11'0 0.0
2014-Oct-18 18:31N 53°53' E 009°11'0 0.0
2014-Oct-18 17:28N 53°53' E 009°11'0 0.0
2014-Oct-18 16:10N 53°53' E 009°11'0 0.0
2014-Oct-18 15:28N 53°53' E 009°11'0 0.0
2014-Oct-18 14:13N 53°53' E 009°11'0 0.0
2014-Oct-18 13:31N 53°53' E 009°11'0 0.0
2014-Oct-18 12:31N 53°53' E 009°11'0 0.0
2014-Oct-18 11:31N 53°53' E 009°11'0 0.0
2014-Oct-18 10:31N 53°53' E 009°11'0 0.0
2014-Oct-18 09:28N 53°53' E 009°11'0 0.0
2014-Oct-18 08:28N 53°53' E 009°11'0 0.0
2014-Oct-18 07:28N 53°53' E 009°11'0 0.0
2014-Oct-18 06:22N 53°53' E 009°11'0 0.0
2014-Oct-18 05:31N 53°53' E 009°11'0 0.0
2014-Oct-18 04:31N 53°53' E 009°11'0 0.0
2014-Oct-18 03:31N 53°53' E 009°11'0 0.0
2014-Oct-18 02:31N 53°53' E 009°11'0 0.0
2014-Oct-18 01:31N 53°53' E 009°11'0 0.0
2014-Oct-18 00:31N 53°53' E 009°11'0 0.0
2014-Oct-17 23:31N 53°53' E 009°11'0 0.0
2014-Oct-17 22:31N 53°53' E 009°11'0 0.0
2014-Oct-17 21:28N 53°53' E 009°11'0 0.0
2014-Oct-17 20:28N 53°53' E 009°11'0 0.0
2014-Oct-17 19:31N 53°53' E 009°11'0 0.0
2014-Oct-17 18:28N 53°53' E 009°11'0 0.0
2014-Oct-17 17:28N 53°53' E 009°11'0 0.0
2014-Oct-17 16:28N 53°53' E 009°11'0 0.0
2014-Oct-17 15:22N 53°53' E 009°11'0 0.0
2014-Oct-17 14:25N 53°53' E 009°11'0 0.0
2014-Oct-17 13:31N 53°53' E 009°11'0 0.0
2014-Oct-17 12:28N 53°53' E 009°11'0 0.0
2014-Oct-17 11:31N 53°53' E 009°11'0 0.0
2014-Oct-17 10:28N 53°53' E 009°11'0 0.0
2014-Oct-17 09:31N 53°53' E 009°11'0 0.0
2014-Oct-17 08:31N 53°53' E 009°11'0 0.0
2014-Oct-17 07:31N 53°53' E 009°11'0 0.0
2014-Oct-17 06:28N 53°53' E 009°11'0 0.0
2014-Oct-17 05:31N 53°53' E 009°11'0 0.0
2014-Oct-17 04:31N 53°53' E 009°11'0 0.2
2014-Oct-17 03:33N 53°53' E 009°11'8 7.6
2014-Oct-17 02:33N 53°51' E 008°59'1111.1
2014-Oct-17 01:33N 53°54' E 008°41'1212.1
2014-Oct-17 00:34N 53°59' E 008°22'1110.8
2014-Oct-16 23:34N 53°59' E 008°04'5 4.9
2014-Oct-16 22:32N 54°03' E 008°09'0 0.1
2014-Oct-16 21:29N 54°03' E 008°09'0 0.0
2014-Oct-16 20:32N 54°03' E 008°09'0 0.0
2014-Oct-16 19:32N 54°03' E 008°09'0 0.1
2014-Oct-16 18:32N 54°03' E 008°09'0 0.1
2014-Oct-16 17:32N 54°03' E 008°09'0 0.0
2014-Oct-16 16:33N 54°03' E 008°09'0 0.2
2014-Oct-16 15:33N 54°03' E 008°09'7 6.6
2014-Oct-16 14:33N 54°02' E 007°58'1212.5
2014-Oct-16 13:33N 53°55' E 007°39'5513.5
2014-Oct-16 09:28N 53°42' E 006°09'1112.4
2014-Oct-16 08:33N 53°39' E 005°50'1212.0
2014-Oct-16 07:33N 53°35' E 005°31'1211.8
2014-Oct-16 06:33N 53°31' E 005°12'1212.0
2014-Oct-16 05:33N 53°27' E 004°54'1110.9
2014-Oct-16 04:32N 53°20' E 004°39'1211.7
2014-Oct-16 03:31N 53°10' E 004°30'1111.7
2014-Oct-16 02:33N 52°60' E 004°20'1211.7
2014-Oct-16 01:33N 52°49' E 004°13'1211.7
2014-Oct-16 00:33N 52°41' E 003°59'1212.0
2014-Oct-15 23:33N 52°35' E 003°42'1411.6
2014-Oct-15 22:23N 52°23' E 003°31'6513.5
2014-Oct-15 17:32N 51°35' E 002°20'1414.1
2014-Oct-15 16:34N 51°24' E 002°07'1312.9
2014-Oct-15 15:33N 51°12' E 001°59'1413.9
2014-Oct-15 14:33N 51°03' E 001°41'1313.3
2014-Oct-15 13:33N 50°54' E 001°27'1313.1
2014-Oct-15 12:33N 50°42' E 001°19'1313.0
2014-Oct-15 11:34N 50°33' E 001°03'1312.7
2014-Oct-15 10:33N 50°28' E 000°45'1312.6
2014-Oct-15 09:33N 50°25' E 000°26'11412.5
2014-Oct-15 00:24N 49°55' W 002°27'  
Track history (hours):
 
Tides and Currents Weather Stations Pressure Air Temp Water Temp Dewpoint Dewpoint Depression Visibility Wind Speed Wind Dir Waves Ship Positions

Federal Kumano

Last reported at 2014-Oct-24 07:32 UTC. Time now 2014-Oct-24 07:52 UTC.
Position N 53°38' W 000°11'.

Length 200 m; draft 5.9 m.

Type: Cargo ship. MMSI: 477284000.

Date/timePositionNaut miles runAvg speedWind from/ knotsBaromVisibWave heightAir tempDewpointWater temp
2014-Oct-24 07:32N 53°38' W 000°11'0 0.0
2014-Oct-24 06:32N 53°38' W 000°11'0 0.0
2014-Oct-24 05:32N 53°38' W 000°11'0 0.0
2014-Oct-24 04:32N 53°38' W 000°11'0 0.0
2014-Oct-24 03:32N 53°38' W 000°11'0 0.0
2014-Oct-24 02:32N 53°38' W 000°11'0 0.0
2014-Oct-24 01:32N 53°38' W 000°11'0 0.0
2014-Oct-24 00:32N 53°38' W 000°11'0 0.0
2014-Oct-23 23:32N 53°38' W 000°11'0 0.0
2014-Oct-23 22:29N 53°38' W 000°11'0 0.0
2014-Oct-23 21:32N 53°38' W 000°11'0 0.0
2014-Oct-23 20:32N 53°38' W 000°11'0 0.0
2014-Oct-23 19:32N 53°38' W 000°11'0 0.0
2014-Oct-23 18:32N 53°38' W 000°11'0 0.0
2014-Oct-23 17:32N 53°38' W 000°11'0 0.0
2014-Oct-23 16:32N 53°38' W 000°11'0 0.0
2014-Oct-23 15:32N 53°38' W 000°11'0 0.0
2014-Oct-23 14:32N 53°38' W 000°11'0 0.0
2014-Oct-23 13:32N 53°38' W 000°11'0 0.0
2014-Oct-23 12:32N 53°38' W 000°11'0 0.0
2014-Oct-23 11:32N 53°38' W 000°11'0 0.0
2014-Oct-23 10:32N 53°38' W 000°11'0 0.0
2014-Oct-23 09:32N 53°38' W 000°11'0 0.0
2014-Oct-23 08:32N 53°38' W 000°11'0 0.0
2014-Oct-23 07:32N 53°38' W 000°11'0 0.0
2014-Oct-23 06:26N 53°38' W 000°11'0 0.0
2014-Oct-23 05:32N 53°38' W 000°11'0 0.0
2014-Oct-23 04:32N 53°38' W 000°11'0 0.0
2014-Oct-23 03:32N 53°38' W 000°11'0 0.0
2014-Oct-23 02:32N 53°38' W 000°11'0 0.0
2014-Oct-23 01:32N 53°38' W 000°11'0 0.0
2014-Oct-23 00:32N 53°38' W 000°11'0 0.0
2014-Oct-22 23:32N 53°38' W 000°11'0 0.0
2014-Oct-22 22:32N 53°38' W 000°11'0 0.0
2014-Oct-22 21:32N 53°38' W 000°11'0 0.0
2014-Oct-22 20:32N 53°38' W 000°11'0 0.0
2014-Oct-22 19:32N 53°38' W 000°11'0 0.0
2014-Oct-22 18:32N 53°38' W 000°11'0 0.0
2014-Oct-22 17:32N 53°38' W 000°11'0 0.0
2014-Oct-22 16:32N 53°38' W 000°11'0 0.0
2014-Oct-22 15:32N 53°38' W 000°11'0 0.0
2014-Oct-22 14:32N 53°38' W 000°11'0 0.0
2014-Oct-22 13:32N 53°38' W 000°11'0 0.0
2014-Oct-22 12:32N 53°38' W 000°11'0 0.0
2014-Oct-22 11:32N 53°38' W 000°11'0 0.0
2014-Oct-22 10:32N 53°38' W 000°11'0 0.0
2014-Oct-22 09:32N 53°38' W 000°11'0 0.0
2014-Oct-22 08:32N 53°38' W 000°11'0 0.0
2014-Oct-22 07:32N 53°38' W 000°11'0 0.0
2014-Oct-22 06:26N 53°38' W 000°11'0 0.0
2014-Oct-22 05:32N 53°38' W 000°11'0 0.0
2014-Oct-22 04:32N 53°38' W 000°11'0 0.0
2014-Oct-22 03:26N 53°38' W 000°11'0 0.0
2014-Oct-22 02:32N 53°38' W 000°11'0 0.0
2014-Oct-22 01:32N 53°38' W 000°11'0 0.0
2014-Oct-22 00:32N 53°38' W 000°11'0 0.0
2014-Oct-21 23:32N 53°38' W 000°11'0 0.0
2014-Oct-21 22:32N 53°38' W 000°11'0 0.0
2014-Oct-21 21:32N 53°38' W 000°11'0 0.0
2014-Oct-21 20:32N 53°38' W 000°11'0 0.0
2014-Oct-21 19:32N 53°38' W 000°11'0 0.0
2014-Oct-21 18:32N 53°38' W 000°11'0 0.0
2014-Oct-21 17:32N 53°38' W 000°11'0 0.0
2014-Oct-21 16:33N 53°38' W 000°11'1 1.3
2014-Oct-21 15:33N 53°38' W 000°09'9 9.1
2014-Oct-21 14:33N 53°34' E 000°05'8 8.0
2014-Oct-21 13:33N 53°33' E 000°18'4 4.0
2014-Oct-21 12:33N 53°35' E 000°24'2 1.9
2014-Oct-21 11:32N 53°37' E 000°24'0 0.1
2014-Oct-21 10:32N 53°37' E 000°25'0 0.0
2014-Oct-21 09:32N 53°37' E 000°24'2 2.6
2014-Oct-21 08:33N 53°38' E 000°28'7 6.6
2014-Oct-21 07:33N 53°41' E 000°38'9 9.2
2014-Oct-21 06:33N 53°47' E 000°50'9 8.5
2014-Oct-21 05:27N 53°51' E 001°05'10111.0
2014-Oct-20 20:13N 54°00' E 003°56'3011.2
2014-Oct-20 17:33N 54°03' E 004°47'1110.7
2014-Oct-20 16:33N 54°05' E 005°05'1110.7
2014-Oct-20 15:32N 54°06' E 005°23'1111.0
2014-Oct-20 14:33N 54°08' E 005°41'1111.3
2014-Oct-20 13:33N 54°10' E 006°00'3511.7
2014-Oct-20 10:32N 54°12' E 007°00'1111.2
2014-Oct-20 09:33N 54°12' E 007°19'1010.2
2014-Oct-20 08:33N 54°12' E 007°37'10 9.6
2014-Oct-20 07:33N 54°07' E 007°50'9 9.5
2014-Oct-20 06:33N 54°01' E 008°04'8 7.9
2014-Oct-20 05:33N 53°60' E 008°17'5 4.8
2014-Oct-20 04:33N 53°59' E 008°25'8 8.3
2014-Oct-20 03:33N 53°57' E 008°38'1211.9
2014-Oct-20 02:34N 53°51' E 008°56'9 9.2
2014-Oct-20 01:33N 53°53' E 009°11'0 0.0
2014-Oct-20 00:28N 53°53' E 009°11'0 0.0
2014-Oct-19 23:25N 53°53' E 009°11'0 0.0
2014-Oct-19 22:28N 53°53' E 009°11'0 0.0
2014-Oct-19 21:31N 53°53' E 009°11'0 0.0
2014-Oct-19 20:31N 53°53' E 009°11'0 0.0
2014-Oct-19 19:28N 53°53' E 009°11'0 0.0
2014-Oct-19 18:31N 53°53' E 009°11'0 0.0
2014-Oct-19 17:31N 53°53' E 009°11'0 0.0
2014-Oct-19 16:31N 53°53' E 009°11'0 0.0
2014-Oct-19 15:31N 53°53' E 009°11'0 0.0
2014-Oct-19 14:31N 53°53' E 009°11'0 0.0
2014-Oct-19 13:31N 53°53' E 009°11'0 0.0
2014-Oct-19 12:31N 53°53' E 009°11'0 0.0
2014-Oct-19 11:28N 53°53' E 009°11'0 0.0
2014-Oct-19 10:25N 53°53' E 009°11'0 0.0
2014-Oct-19 09:31N 53°53' E 009°11'0 0.0
2014-Oct-19 08:28N 53°53' E 009°11'0 0.0
2014-Oct-19 07:31N 53°53' E 009°11'0 0.0
2014-Oct-19 06:31N 53°53' E 009°11'0 0.0
2014-Oct-19 05:28N 53°53' E 009°11'0 0.0
2014-Oct-19 04:19N 53°53' E 009°11'0 0.0
2014-Oct-19 03:28N 53°53' E 009°11'0 0.0
2014-Oct-19 02:28N 53°53' E 009°11'0 0.0
2014-Oct-19 01:31N 53°53' E 009°11'0 0.0
2014-Oct-19 00:31N 53°53' E 009°11'0 0.0
2014-Oct-18 23:28N 53°53' E 009°11'0 0.0
2014-Oct-18 22:31N 53°53' E 009°11'0 0.0
2014-Oct-18 21:31N 53°53' E 009°11'0 0.0
2014-Oct-18 20:31N 53°53' E 009°11'0 0.0
2014-Oct-18 19:31N 53°53' E 009°11'0 0.0
2014-Oct-18 18:31N 53°53' E 009°11'0 0.0
2014-Oct-18 17:28N 53°53' E 009°11'0 0.0
2014-Oct-18 16:10N 53°53' E 009°11'0 0.0
2014-Oct-18 15:28N 53°53' E 009°11'0 0.0
2014-Oct-18 14:13N 53°53' E 009°11'0 0.0
2014-Oct-18 13:31N 53°53' E 009°11'0 0.0
2014-Oct-18 12:31N 53°53' E 009°11'0 0.0
2014-Oct-18 11:31N 53°53' E 009°11'0 0.0
2014-Oct-18 10:31N 53°53' E 009°11'0 0.0
2014-Oct-18 09:28N 53°53' E 009°11'0 0.0
2014-Oct-18 08:28N 53°53' E 009°11'0 0.0
2014-Oct-18 07:28N 53°53' E 009°11'0 0.0
2014-Oct-18 06:22N 53°53' E 009°11'0 0.0
2014-Oct-18 05:31N 53°53' E 009°11'0 0.0
2014-Oct-18 04:31N 53°53' E 009°11'0 0.0
2014-Oct-18 03:31N 53°53' E 009°11'0 0.0
2014-Oct-18 02:31N 53°53' E 009°11'0 0.0
2014-Oct-18 01:31N 53°53' E 009°11'0 0.0
2014-Oct-18 00:31N 53°53' E 009°11'0 0.0
2014-Oct-17 23:31N 53°53' E 009°11'0 0.0
2014-Oct-17 22:31N 53°53' E 009°11'0 0.0
2014-Oct-17 21:28N 53°53' E 009°11'0 0.0
2014-Oct-17 20:28N 53°53' E 009°11'0 0.0
2014-Oct-17 19:31N 53°53' E 009°11'0 0.0
2014-Oct-17 18:28N 53°53' E 009°11'0 0.0
2014-Oct-17 17:28N 53°53' E 009°11'0 0.0
2014-Oct-17 16:28N 53°53' E 009°11'0 0.0
2014-Oct-17 15:22N 53°53' E 009°11'0 0.0
2014-Oct-17 14:25N 53°53' E 009°11'0 0.0
2014-Oct-17 13:31N 53°53' E 009°11'0 0.0
2014-Oct-17 12:28N 53°53' E 009°11'0 0.0
2014-Oct-17 11:31N 53°53' E 009°11'0 0.0
2014-Oct-17 10:28N 53°53' E 009°11'0 0.0
2014-Oct-17 09:31N 53°53' E 009°11'0 0.0
2014-Oct-17 08:31N 53°53' E 009°11'0 0.0
2014-Oct-17 07:31N 53°53' E 009°11'0 0.0
2014-Oct-17 06:28N 53°53' E 009°11'0 0.0
2014-Oct-17 05:31N 53°53' E 009°11'0 0.0
2014-Oct-17 04:31N 53°53' E 009°11'0 0.2
2014-Oct-17 03:33N 53°53' E 009°11'8 7.6
2014-Oct-17 02:33N 53°51' E 008°59'1111.1
2014-Oct-17 01:33N 53°54' E 008°41'1212.1
2014-Oct-17 00:34N 53°59' E 008°22'1110.8
2014-Oct-16 23:34N 53°59' E 008°04'5 4.9
2014-Oct-16 22:32N 54°03' E 008°09'0 0.1
2014-Oct-16 21:29N 54°03' E 008°09'0 0.0
2014-Oct-16 20:32N 54°03' E 008°09'0 0.0
2014-Oct-16 19:32N 54°03' E 008°09'0 0.1
2014-Oct-16 18:32N 54°03' E 008°09'0 0.1
2014-Oct-16 17:32N 54°03' E 008°09'0 0.0
2014-Oct-16 16:33N 54°03' E 008°09'0 0.2
2014-Oct-16 15:33N 54°03' E 008°09'7 6.6
2014-Oct-16 14:33N 54°02' E 007°58'1212.5
2014-Oct-16 13:33N 53°55' E 007°39'5513.5
2014-Oct-16 09:28N 53°42' E 006°09'1112.4
2014-Oct-16 08:33N 53°39' E 005°50'1212.0
2014-Oct-16 07:33N 53°35' E 005°31'1211.8
2014-Oct-16 06:33N 53°31' E 005°12'1212.0
2014-Oct-16 05:33N 53°27' E 004°54'1110.9
2014-Oct-16 04:32N 53°20' E 004°39'1211.7
2014-Oct-16 03:31N 53°10' E 004°30'1111.7
2014-Oct-16 02:33N 52°60' E 004°20'1211.7
2014-Oct-16 01:33N 52°49' E 004°13'1211.7
2014-Oct-16 00:33N 52°41' E 003°59'1212.0
2014-Oct-15 23:33N 52°35' E 003°42'1411.6
2014-Oct-15 22:23N 52°23' E 003°31'6513.5
2014-Oct-15 17:32N 51°35' E 002°20'1414.1
2014-Oct-15 16:34N 51°24' E 002°07'1312.9
2014-Oct-15 15:33N 51°12' E 001°59'1413.9
2014-Oct-15 14:33N 51°03' E 001°41'1313.3
2014-Oct-15 13:33N 50°54' E 001°27'1313.1
2014-Oct-15 12:33N 50°42' E 001°19'1313.0
2014-Oct-15 11:34N 50°33' E 001°03'1312.7
2014-Oct-15 10:33N 50°28' E 000°45'1312.6
2014-Oct-15 09:33N 50°25' E 000°26'11412.5
2014-Oct-15 00:24N 49°55' W 002°27'  

Dump ship's entire track history